Time;durP1;ratioP1;P1;durP2;ratioP2;P2;SDS_P1;SDS_P2;PMS_P1;PMS_P2;Temp;Humidity;BMP_temperature;BMP_pressure;BME280_temperature;BME280_humidity;BME280_pressure;Samples;Min_cycle;Max_cycle;Signal;HPM_P1;HPM_P2
2021/09/08 00:00:50;;;;;;;12.88;9.95;;;;;;;;;;5113424;28;20016;-59
2021/09/08 00:03:16;;;;;;;10.52;9.15;;;;;;;;;;5113757;28;20470;-59
2021/09/08 00:05:41;;;;;;;11.68;9.95;;;;;;;;;;5113736;28;20016;-59
2021/09/08 00:08:06;;;;;;;12.48;9.60;;;;;;;;;;5113954;28;20027;-60
2021/09/08 00:10:31;;;;;;;11.27;10.07;;;;;;;;;;5113201;28;20032;-59
2021/09/08 00:12:57;;;;;;;12.90;10.48;;;;;;;;;;5114451;28;20111;-59
2021/09/08 00:15:22;;;;;;;16.27;10.65;;;;;;;;;;5112010;28;20394;-58
2021/09/08 00:17:47;;;;;;;12.25;10.38;;;;;;;;;;5113998;28;20051;-59
2021/09/08 00:20:15;;;;;;;11.85;10.63;;;;;;;;;;5114000;28;20055;-59
2021/09/08 00:22:40;;;;;;;11.27;10.05;;;;;;;;;;5113097;28;20028;-59
2021/09/08 00:25:06;;;;;;;13.15;10.38;;;;;;;;;;5113833;28;20023;-59
2021/09/08 00:27:31;;;;;;;11.25;9.95;;;;;;;;;;5113644;28;20027;-58
2021/09/08 00:29:57;;;;;;;11.18;9.38;;;;;;;;;;5113565;28;20123;-59
2021/09/08 00:32:22;;;;;;;11.52;9.88;;;;;;;;;;5113190;27;20019;-59
2021/09/08 00:34:47;;;;;;;13.25;9.90;;;;;;;;;;5113662;28;20462;-59
2021/09/08 00:37:12;;;;;;;11.35;9.75;;;;;;;;;;5113231;28;20031;-59
2021/09/08 00:39:38;;;;;;;11.77;10.23;;;;;;;;;;5113819;28;20028;-60
2021/09/08 00:42:12;;;;;;;11.50;9.73;;;;;;;;;;5113963;28;20424;-60
2021/09/08 00:44:38;;;;;;;11.52;9.82;;;;;;;;;;5113827;28;20032;-60
2021/09/08 00:47:03;;;;;;;11.75;9.98;;;;;;;;;;5113504;28;20016;-60
2021/09/08 00:49:29;;;;;;;11.13;9.30;;;;;;;;;;5109991;28;20024;-60
2021/09/08 00:51:55;;;;;;;13.73;9.82;;;;;;;;;;5112796;28;20093;-60
2021/09/08 00:54:21;;;;;;;10.07;8.75;;;;;;;;;;5113781;28;20041;-60
2021/09/08 00:56:47;;;;;;;12.00;9.98;;;;;;;;;;5113285;28;20449;-60
2021/09/08 00:59:12;;;;;;;12.02;9.80;;;;;;;;;;5113377;28;20027;-61
2021/09/08 01:01:37;;;;;;;11.00;9.20;;;;;;;;;;5113182;28;20432;-60
2021/09/08 01:04:03;;;;;;;14.43;9.68;;;;;;;;;;5113067;28;20019;-59
2021/09/08 01:06:28;;;;;;;11.10;9.00;;;;;;;;;;5112194;28;20038;-59
2021/09/08 01:08:54;;;;;;;12.40;9.68;;;;;;;;;;5099409;28;20019;-59
2021/09/08 01:11:20;;;;;;;11.23;9.82;;;;;;;;;;5112864;28;20023;-59
2021/09/08 01:13:45;;;;;;;13.02;10.02;;;;;;;;;;5112717;28;20508;-59
2021/09/08 01:16:10;;;;;;;11.23;9.68;;;;;;;;;;5112486;28;20016;-60
2021/09/08 01:18:36;;;;;;;14.60;10.18;;;;;;;;;;5112083;28;20094;-60
2021/09/08 01:21:02;;;;;;;11.90;9.88;;;;;;;;;;5112450;28;20023;-59
2021/09/08 01:23:27;;;;;;;12.00;10.15;;;;;;;;;;5109371;28;20031;-60
2021/09/08 01:25:53;;;;;;;13.32;10.27;;;;;;;;;;5112601;28;20027;-59
2021/09/08 01:28:18;;;;;;;14.73;10.30;;;;;;;;;;5112917;28;20041;-60
2021/09/08 01:30:43;;;;;;;11.90;10.25;;;;;;;;;;5112817;28;20027;-59
2021/09/08 01:33:09;;;;;;;11.77;9.60;;;;;;;;;;5094306;28;20034;-58
2021/09/08 01:35:34;;;;;;;12.40;10.73;;;;;;;;;;5112128;28;20016;-60
2021/09/08 01:38:00;;;;;;;12.45;9.73;;;;;;;;;;5112067;28;20498;-60
2021/09/08 01:40:25;;;;;;;12.25;10.35;;;;;;;;;;5112507;28;20019;-60
2021/09/08 01:42:50;;;;;;;12.82;10.43;;;;;;;;;;5110850;28;20027;-60
2021/09/08 01:45:16;;;;;;;14.32;10.88;;;;;;;;;;5112144;28;20430;-60
2021/09/08 01:47:41;;;;;;;14.13;11.85;;;;;;;;;;5112737;28;20027;-60
2021/09/08 01:50:08;;;;;;;13.43;11.25;;;;;;;;;;5111862;28;20023;-59
2021/09/08 01:52:33;;;;;;;15.60;10.82;;;;;;;;;;5111016;28;20020;-60
2021/09/08 01:54:58;;;;;;;15.05;10.50;;;;;;;;;;5112946;28;20030;-59
2021/09/08 01:57:24;;;;;;;13.20;10.55;;;;;;;;;;5111790;28;20019;-60
2021/09/08 01:59:49;;;;;;;14.40;11.15;;;;;;;;;;5112398;28;20015;-60
2021/09/08 02:02:14;;;;;;;14.48;10.43;;;;;;;;;;5112078;28;20027;-60
2021/09/08 02:04:39;;;;;;;11.05;9.73;;;;;;;;;;5111910;28;20106;-59
2021/09/08 02:07:05;;;;;;;11.70;9.90;;;;;;;;;;5112255;28;20098;-60
2021/09/08 02:09:30;;;;;;;13.30;10.82;;;;;;;;;;5112130;28;20031;-60
2021/09/08 02:11:55;;;;;;;11.15;9.77;;;;;;;;;;5111826;28;20096;-60
2021/09/08 02:14:20;;;;;;;11.82;10.60;;;;;;;;;;5111957;28;20386;-60
2021/09/08 02:16:46;;;;;;;15.00;11.50;;;;;;;;;;5111105;28;20027;-59
2021/09/08 02:19:11;;;;;;;12.05;10.32;;;;;;;;;;5112086;28;20020;-60
2021/09/08 02:21:36;;;;;;;13.20;11.13;;;;;;;;;;5111442;28;20039;-60
2021/09/08 02:24:01;;;;;;;12.70;10.65;;;;;;;;;;5111390;28;20031;-60
2021/09/08 02:26:27;;;;;;;12.63;10.23;;;;;;;;;;5112113;28;20038;-60
2021/09/08 02:28:52;;;;;;;11.48;10.25;;;;;;;;;;5112424;28;20108;-60
2021/09/08 02:31:17;;;;;;;12.65;10.30;;;;;;;;;;5116504;28;20342;-60
2021/09/08 02:33:42;;;;;;;11.70;9.95;;;;;;;;;;5110475;28;20111;-60
2021/09/08 02:36:07;;;;;;;12.57;10.52;;;;;;;;;;5095947;28;20463;-60
2021/09/08 02:38:33;;;;;;;11.77;10.57;;;;;;;;;;5090190;28;20413;-60
2021/09/08 02:40:59;;;;;;;12.95;10.60;;;;;;;;;;5115780;28;20020;-60
2021/09/08 02:43:25;;;;;;;14.10;10.77;;;;;;;;;;5116105;28;20538;-59
2021/09/08 02:45:50;;;;;;;11.43;10.23;;;;;;;;;;5116216;28;20027;-60
2021/09/08 02:48:15;;;;;;;12.52;10.38;;;;;;;;;;5116137;28;20450;-60
2021/09/08 02:50:41;;;;;;;11.65;10.38;;;;;;;;;;5095010;28;20169;-60
2021/09/08 02:53:06;;;;;;;11.68;10.48;;;;;;;;;;5114584;28;20028;-60
2021/09/08 02:55:31;;;;;;;12.15;10.85;;;;;;;;;;5115888;28;20023;-60
2021/09/08 02:57:56;;;;;;;12.98;11.07;;;;;;;;;;5115670;28;20051;-60
2021/09/08 03:00:21;;;;;;;13.48;10.85;;;;;;;;;;5115565;28;20020;-60
2021/09/08 03:02:47;;;;;;;13.60;12.10;;;;;;;;;;5115893;28;20055;-59
2021/09/08 03:05:12;;;;;;;13.85;12.35;;;;;;;;;;5097282;28;20027;-59
2021/09/08 03:07:37;;;;;;;14.48;12.77;;;;;;;;;;5116112;27;20100;-60
2021/09/08 03:10:03;;;;;;;14.30;11.43;;;;;;;;;;5114856;28;20051;-59
2021/09/08 03:12:28;;;;;;;14.50;11.73;;;;;;;;;;5115069;28;20020;-59
2021/09/08 03:14:53;;;;;;;12.68;10.80;;;;;;;;;;5115409;28;20019;-61
2021/09/08 03:17:18;;;;;;;13.98;11.73;;;;;;;;;;5115507;28;20019;-60
2021/09/08 03:19:43;;;;;;;14.13;10.70;;;;;;;;;;5115581;28;20019;-60
2021/09/08 03:22:09;;;;;;;12.90;10.82;;;;;;;;;;5114065;28;20505;-60
2021/09/08 03:24:34;;;;;;;13.65;12.00;;;;;;;;;;5113952;28;20106;-60
2021/09/08 03:26:59;;;;;;;13.98;11.75;;;;;;;;;;5115229;28;20038;-60
2021/09/08 03:29:24;;;;;;;12.98;11.18;;;;;;;;;;5114877;28;20051;-60
2021/09/08 03:31:49;;;;;;;12.55;11.27;;;;;;;;;;5114191;28;20490;-60
2021/09/08 03:34:15;;;;;;;13.50;10.85;;;;;;;;;;5114523;28;20031;-60
2021/09/08 03:36:40;;;;;;;14.55;12.57;;;;;;;;;;5114640;28;20015;-60
2021/09/08 03:39:05;;;;;;;15.25;12.32;;;;;;;;;;5114884;28;20024;-60
2021/09/08 03:41:30;;;;;;;14.25;12.60;;;;;;;;;;5110307;28;20016;-58
2021/09/08 03:43:55;;;;;;;16.42;12.60;;;;;;;;;;5114252;28;20414;-60
2021/09/08 03:46:21;;;;;;;17.08;12.43;;;;;;;;;;5114913;28;20547;-60
2021/09/08 03:48:46;;;;;;;16.38;11.95;;;;;;;;;;5114789;28;20028;-60
2021/09/08 03:51:11;;;;;;;18.67;13.75;;;;;;;;;;5114149;28;20027;-60
2021/09/08 03:53:36;;;;;;;16.55;12.15;;;;;;;;;;5114436;28;20015;-60
2021/09/08 03:56:02;;;;;;;17.77;12.77;;;;;;;;;;5113911;28;20095;-60
2021/09/08 03:58:27;;;;;;;15.90;11.50;;;;;;;;;;5114184;28;20026;-60
2021/09/08 04:00:52;;;;;;;18.25;12.55;;;;;;;;;;5109731;28;20080;-59
2021/09/08 04:03:17;;;;;;;16.15;12.00;;;;;;;;;;5115061;28;20032;-59
2021/09/08 04:05:43;;;;;;;14.90;11.63;;;;;;;;;;5114203;28;20026;-60
2021/09/08 04:08:08;;;;;;;17.08;12.43;;;;;;;;;;5113757;28;20039;-59
2021/09/08 04:10:33;;;;;;;17.90;11.70;;;;;;;;;;5113046;28;20064;-60
2021/09/08 04:12:58;;;;;;;15.32;10.52;;;;;;;;;;5114264;28;20057;-59
2021/09/08 04:15:23;;;;;;;14.65;10.48;;;;;;;;;;5114547;28;20023;-60
2021/09/08 04:17:49;;;;;;;18.08;12.20;;;;;;;;;;5108292;28;20039;-59
2021/09/08 04:20:14;;;;;;;14.35;11.30;;;;;;;;;;5113450;28;20065;-59
2021/09/08 04:22:39;;;;;;;16.20;12.60;;;;;;;;;;5112843;28;20023;-60
2021/09/08 04:25:04;;;;;;;13.77;10.95;;;;;;;;;;5113587;28;20024;-59
2021/09/08 04:27:30;;;;;;;19.40;11.90;;;;;;;;;;5113591;28;20028;-59
2021/09/08 04:29:55;;;;;;;12.93;11.13;;;;;;;;;;5113292;28;20043;-59
2021/09/08 04:32:20;;;;;;;15.73;11.63;;;;;;;;;;5113292;28;20059;-59
2021/09/08 04:34:45;;;;;;;14.70;11.65;;;;;;;;;;5108834;28;20437;-59
2021/09/08 04:37:11;;;;;;;14.00;11.50;;;;;;;;;;5104066;28;20039;-60
2021/09/08 04:39:36;;;;;;;13.18;10.95;;;;;;;;;;5113826;28;20027;-59
2021/09/08 04:42:01;;;;;;;13.98;10.73;;;;;;;;;;5112503;28;20031;-59
2021/09/08 04:44:26;;;;;;;15.68;11.85;;;;;;;;;;5113009;28;20094;-60
2021/09/08 04:46:52;;;;;;;13.77;10.77;;;;;;;;;;5095663;28;20454;-60
2021/09/08 04:49:17;;;;;;;14.07;10.48;;;;;;;;;;5113216;28;20007;-60
2021/09/08 04:51:42;;;;;;;13.77;10.45;;;;;;;;;;5111120;28;20020;-60
2021/09/08 04:54:07;;;;;;;16.58;10.70;;;;;;;;;;5112482;28;20077;-60
2021/09/08 04:56:33;;;;;;;14.10;11.00;;;;;;;;;;5113514;28;20454;-60
2021/09/08 04:58:58;;;;;;;15.05;10.43;;;;;;;;;;5113385;28;20028;-60
2021/09/08 05:01:23;;;;;;;13.32;10.48;;;;;;;;;;5113131;28;20023;-60
2021/09/08 05:03:48;;;;;;;14.13;10.75;;;;;;;;;;5094812;28;20030;-60
2021/09/08 05:06:14;;;;;;;15.23;11.77;;;;;;;;;;5112054;27;20024;-60
2021/09/08 05:08:39;;;;;;;11.95;10.50;;;;;;;;;;5112212;28;20019;-59
2021/09/08 05:11:04;;;;;;;15.40;11.15;;;;;;;;;;5094179;28;20039;-59
2021/09/08 05:13:30;;;;;;;14.52;11.05;;;;;;;;;;5112996;28;20031;-59
2021/09/08 05:15:55;;;;;;;16.77;11.98;;;;;;;;;;5113280;28;20019;-59
2021/09/08 05:18:20;;;;;;;15.60;12.00;;;;;;;;;;5112713;28;20153;-59
2021/09/08 05:20:45;;;;;;;16.35;12.75;;;;;;;;;;5112387;28;20034;-60
2021/09/08 05:23:11;;;;;;;15.00;11.68;;;;;;;;;;5106974;28;20024;-60
2021/09/08 05:25:36;;;;;;;18.05;12.35;;;;;;;;;;5113122;28;20094;-60
2021/09/08 05:28:01;;;;;;;14.63;12.00;;;;;;;;;;5112677;28;20090;-60
2021/09/08 05:30:26;;;;;;;13.45;11.27;;;;;;;;;;5110731;28;20032;-58
2021/09/08 05:32:51;;;;;;;16.00;10.93;;;;;;;;;;5108347;28;20058;-60
2021/09/08 05:35:17;;;;;;;12.27;10.90;;;;;;;;;;5111721;28;20247;-60
2021/09/08 05:37:42;;;;;;;13.85;11.50;;;;;;;;;;5110197;28;20019;-61
2021/09/08 05:40:11;;;;;;;13.88;10.68;;;;;;;;;;5112022;28;20031;-60
2021/09/08 05:42:36;;;;;;;15.20;11.88;;;;;;;;;;5112066;28;20053;-60
2021/09/08 05:45:01;;;;;;;15.05;11.57;;;;;;;;;;5109488;28;20468;-59
2021/09/08 05:47:27;;;;;;;14.95;11.13;;;;;;;;;;5117111;27;20019;-59
2021/09/08 05:49:52;;;;;;;16.23;11.07;;;;;;;;;;5097706;28;20474;-59
2021/09/08 05:52:18;;;;;;;15.20;11.20;;;;;;;;;;5111194;28;20155;-59
2021/09/08 05:54:43;;;;;;;16.30;11.95;;;;;;;;;;5112201;28;20047;-60
2021/09/08 05:57:08;;;;;;;15.35;11.55;;;;;;;;;;5111848;28;20098;-60
2021/09/08 05:59:33;;;;;;;17.10;11.80;;;;;;;;;;5108450;28;20118;-60
2021/09/08 06:01:59;;;;;;;18.52;11.68;;;;;;;;;;5110832;28;20020;-59
2021/09/08 06:04:25;;;;;;;14.05;11.43;;;;;;;;;;5110115;28;20012;-60
2021/09/08 06:06:50;;;;;;;17.02;11.88;;;;;;;;;;5110965;28;20030;-61
2021/09/08 06:09:15;;;;;;;13.00;10.07;;;;;;;;;;5112258;28;20012;-60
2021/09/08 06:11:40;;;;;;;15.35;11.32;;;;;;;;;;5111604;28;20016;-61
2021/09/08 06:14:07;;;;;;;15.63;10.75;;;;;;;;;;5099412;28;20024;-61
2021/09/08 06:16:32;;;;;;;12.07;10.38;;;;;;;;;;5109845;28;20030;-59
2021/09/08 06:18:57;;;;;;;14.98;10.40;;;;;;;;;;5109210;28;20389;-60
2021/09/08 06:21:22;;;;;;;18.88;12.80;;;;;;;;;;5110780;28;20438;-60
2021/09/08 06:23:48;;;;;;;22.80;12.90;;;;;;;;;;5111552;28;20028;-60
2021/09/08 06:26:13;;;;;;;20.00;14.30;;;;;;;;;;5112526;28;20019;-60
2021/09/08 06:28:38;;;;;;;20.05;13.18;;;;;;;;;;5111208;28;20426;-59
2021/09/08 06:31:03;;;;;;;19.13;13.18;;;;;;;;;;5106344;28;20428;-60
2021/09/08 06:33:29;;;;;;;19.65;13.05;;;;;;;;;;5110307;28;20020;-60
2021/09/08 06:35:54;;;;;;;18.05;12.77;;;;;;;;;;5111499;28;20054;-61
2021/09/08 06:38:19;;;;;;;15.57;11.80;;;;;;;;;;5110938;28;20042;-60
2021/09/08 06:40:44;;;;;;;18.42;12.07;;;;;;;;;;5111436;28;20242;-60
2021/09/08 06:43:09;;;;;;;16.27;13.07;;;;;;;;;;5111595;28;20031;-60
2021/09/08 06:45:35;;;;;;;17.15;12.95;;;;;;;;;;5111898;28;20026;-60
2021/09/08 06:48:00;;;;;;;15.35;11.80;;;;;;;;;;5111771;28;20023;-59
2021/09/08 06:50:25;;;;;;;16.63;11.85;;;;;;;;;;5111286;28;20023;-60
2021/09/08 06:52:51;;;;;;;15.23;11.85;;;;;;;;;;5109467;28;20046;-60
2021/09/08 06:55:16;;;;;;;15.25;11.43;;;;;;;;;;5112098;28;20020;-60
2021/09/08 06:57:41;;;;;;;16.35;11.60;;;;;;;;;;5111671;28;20149;-60
2021/09/08 07:00:07;;;;;;;16.23;12.00;;;;;;;;;;5113247;28;20027;-60
2021/09/08 07:02:32;;;;;;;13.05;11.48;;;;;;;;;;5124997;28;20046;-60
2021/09/08 07:04:57;;;;;;;13.45;10.98;;;;;;;;;;5111516;28;20019;-60
2021/09/08 07:07:22;;;;;;;13.25;10.65;;;;;;;;;;5111596;28;20047;-60
2021/09/08 07:09:48;;;;;;;16.67;11.15;;;;;;;;;;5109323;28;20484;-60
2021/09/08 07:12:13;;;;;;;12.68;10.60;;;;;;;;;;5111259;28;20023;-60
2021/09/08 07:14:38;;;;;;;13.38;11.20;;;;;;;;;;5112051;28;20113;-60
2021/09/08 07:17:03;;;;;;;14.23;10.45;;;;;;;;;;5102104;28;20054;-60
2021/09/08 07:19:29;;;;;;;12.10;10.05;;;;;;;;;;5108784;28;20020;-60
2021/09/08 07:21:54;;;;;;;13.25;10.27;;;;;;;;;;5105046;28;20019;-60
2021/09/08 07:24:19;;;;;;;15.00;11.20;;;;;;;;;;5114541;28;20020;-60
2021/09/08 07:26:45;;;;;;;13.35;9.85;;;;;;;;;;5115436;28;20024;-60
2021/09/08 07:29:10;;;;;;;12.32;10.73;;;;;;;;;;5114886;28;20044;-60
2021/09/08 07:31:35;;;;;;;14.35;10.73;;;;;;;;;;5114764;28;20024;-57
2021/09/08 07:34:00;;;;;;;13.13;10.20;;;;;;;;;;5111016;28;20081;-59
2021/09/08 07:36:25;;;;;;;12.13;10.10;;;;;;;;;;5114984;28;20016;-61
2021/09/08 07:38:51;;;;;;;12.50;9.55;;;;;;;;;;5114391;28;20027;-60
2021/09/08 07:41:17;;;;;;;11.68;9.43;;;;;;;;;;5114809;28;20024;-60
2021/09/08 07:43:42;;;;;;;9.90;8.90;;;;;;;;;;5123771;27;20031;-60
2021/09/08 07:46:08;;;;;;;10.82;9.00;;;;;;;;;;5100403;28;20163;-60
2021/09/08 07:48:33;;;;;;;9.73;8.73;;;;;;;;;;5111267;28;20094;-59
2021/09/08 07:50:58;;;;;;;9.93;8.68;;;;;;;;;;5114789;27;20152;-60
2021/09/08 07:53:23;;;;;;;9.50;8.23;;;;;;;;;;5114407;28;20019;-60
2021/09/08 07:55:48;;;;;;;10.02;8.15;;;;;;;;;;5113928;28;20030;-59
2021/09/08 07:58:14;;;;;;;10.43;8.20;;;;;;;;;;5114037;28;20068;-60
2021/09/08 08:00:39;;;;;;;11.43;8.23;;;;;;;;;;5113824;28;20064;-59
2021/09/08 08:03:04;;;;;;;10.68;7.72;;;;;;;;;;5114433;28;20073;-60
2021/09/08 08:05:29;;;;;;;10.68;7.70;;;;;;;;;;5114440;28;20020;-59
2021/09/08 08:07:55;;;;;;;11.75;7.95;;;;;;;;;;5110571;28;20030;-60
2021/09/08 08:10:20;;;;;;;9.60;7.38;;;;;;;;;;5113212;28;20110;-60
2021/09/08 08:12:46;;;;;;;11.32;6.97;;;;;;;;;;5114288;28;20467;-60
2021/09/08 08:15:13;;;;;;;10.88;6.53;;;;;;;;;;5113847;28;20026;-60
2021/09/08 08:17:39;;;;;;;8.95;7.40;;;;;;;;;;5114235;28;20060;-60
2021/09/08 08:20:08;;;;;;;8.82;6.50;;;;;;;;;;5113536;28;20016;-60
2021/09/08 08:22:33;;;;;;;10.85;6.50;;;;;;;;;;5113280;28;20028;-60
2021/09/08 08:24:58;;;;;;;8.98;6.38;;;;;;;;;;5114159;28;20019;-60
2021/09/08 08:27:23;;;;;;;9.35;6.22;;;;;;;;;;5113600;28;20020;-60
2021/09/08 08:29:48;;;;;;;8.20;6.22;;;;;;;;;;5113394;28;20043;-60
2021/09/08 08:32:14;;;;;;;9.30;5.93;;;;;;;;;;5111531;28;20012;-60
2021/09/08 08:34:39;;;;;;;6.67;5.77;;;;;;;;;;5113620;28;20257;-60
2021/09/08 08:37:04;;;;;;;8.70;6.75;;;;;;;;;;5110534;28;20739;-60
2021/09/08 08:39:29;;;;;;;8.90;5.95;;;;;;;;;;5110235;28;20350;-59
2021/09/08 08:41:55;;;;;;;6.35;5.57;;;;;;;;;;5106141;28;20107;-60
2021/09/08 08:44:22;;;;;;;5.75;5.25;;;;;;;;;;5099736;28;20024;-59
2021/09/08 08:46:49;;;;;;;5.70;5.20;;;;;;;;;;5113387;28;20498;-59
2021/09/08 08:49:14;;;;;;;6.20;5.22;;;;;;;;;;5113273;28;20128;-59
2021/09/08 08:51:39;;;;;;;5.53;5.07;;;;;;;;;;5112482;28;20024;-59
2021/09/08 08:54:04;;;;;;;6.20;5.00;;;;;;;;;;5112964;28;20030;-60
2021/09/08 08:56:30;;;;;;;5.40;4.68;;;;;;;;;;5093236;28;20510;-60
2021/09/08 08:58:55;;;;;;;5.93;5.28;;;;;;;;;;5112880;28;20315;-59
2021/09/08 09:01:22;;;;;;;5.70;5.07;;;;;;;;;;5112595;28;20038;-59
2021/09/08 09:04:01;;;;;;;6.15;5.45;;;;;;;;;;5112869;28;20462;-59
2021/09/08 09:06:27;;;;;;;7.20;5.65;;;;;;;;;;5113583;28;20048;-59
2021/09/08 09:08:59;;;;;;;5.57;4.85;;;;;;;;;;5112991;28;20505;-59
2021/09/08 09:11:24;;;;;;;6.75;5.63;;;;;;;;;;5111838;28;20485;-59
2021/09/08 09:13:49;;;;;;;6.43;5.70;;;;;;;;;;5112860;28;20057;-59
2021/09/08 09:16:14;;;;;;;9.10;5.72;;;;;;;;;;5112418;28;20024;-60
2021/09/08 09:18:42;;;;;;;6.67;4.97;;;;;;;;;;5112692;28;20090;-60
2021/09/08 09:21:09;;;;;;;6.05;5.43;;;;;;;;;;5112663;28;20269;-60
2021/09/08 09:23:54;;;;;;;6.82;4.97;;;;;;;;;;5112129;28;20066;-60
2021/09/08 09:26:20;;;;;;;7.90;5.05;;;;;;;;;;5112946;28;20466;-60
2021/09/08 09:28:45;;;;;;;5.90;5.40;;;;;;;;;;5111794;28;20119;-60
2021/09/08 09:31:12;;;;;;;6.37;4.90;;;;;;;;;;5110976;28;20469;-59
2021/09/08 09:33:40;;;;;;;5.10;4.53;;;;;;;;;;5110677;28;20265;-60
2021/09/08 09:36:16;;;;;;;5.85;5.10;;;;;;;;;;5111246;28;20020;-60
2021/09/08 09:38:42;;;;;;;5.97;4.80;;;;;;;;;;5110259;28;20371;-60
2021/09/08 09:41:08;;;;;;;6.05;4.78;;;;;;;;;;5112530;28;20028;-58
2021/09/08 09:43:33;;;;;;;5.20;4.78;;;;;;;;;;5112679;28;20028;-59
2021/09/08 09:46:05;;;;;;;5.30;4.80;;;;;;;;;;5112017;28;20458;-59
2021/09/08 09:48:30;;;;;;;5.10;4.32;;;;;;;;;;5112014;28;20501;-59
2021/09/08 09:50:55;;;;;;;5.00;4.25;;;;;;;;;;5111645;28;20023;-59
2021/09/08 09:53:20;;;;;;;6.13;4.72;;;;;;;;;;5111538;28;20088;-59
2021/09/08 09:55:46;;;;;;;5.35;4.20;;;;;;;;;;5111448;28;20019;-60
2021/09/08 09:58:11;;;;;;;5.70;4.50;;;;;;;;;;5106242;28;20065;-60
2021/09/08 10:00:37;;;;;;;4.28;3.83;;;;;;;;;;5112176;28;20022;-60
2021/09/08 10:03:02;;;;;;;5.97;4.95;;;;;;;;;;5110908;28;20051;-60
2021/09/08 10:05:28;;;;;;;5.90;4.47;;;;;;;;;;5111533;28;20024;-60
2021/09/08 10:07:53;;;;;;;4.60;4.20;;;;;;;;;;5093056;28;20058;-60
2021/09/08 10:10:27;;;;;;;4.10;3.70;;;;;;;;;;5111486;28;20051;-60
2021/09/08 10:12:56;;;;;;;4.63;4.07;;;;;;;;;;5110016;28;20069;-60
2021/09/08 10:15:22;;;;;;;6.30;4.30;;;;;;;;;;5111115;28;20389;-60
2021/09/08 10:17:48;;;;;;;5.00;3.47;;;;;;;;;;5103735;28;20011;-60
2021/09/08 10:20:20;;;;;;;4.10;3.70;;;;;;;;;;5111248;28;20027;-60
2021/09/08 10:22:46;;;;;;;5.13;4.03;;;;;;;;;;5111244;28;20050;-60
2021/09/08 10:25:16;;;;;;;5.30;4.80;;;;;;;;;;5107067;28;20016;-59
2021/09/08 10:27:42;;;;;;;4.30;3.90;;;;;;;;;;5092342;28;20015;-59
2021/09/08 10:30:09;;;;;;;4.63;4.22;;;;;;;;;;5111053;28;20482;-60
2021/09/08 10:32:34;;;;;;;4.65;3.90;;;;;;;;;;5093979;28;20512;-59
2021/09/08 10:35:08;;;;;;;4.45;3.72;;;;;;;;;;5110128;28;20023;-59
2021/09/08 10:37:33;;;;;;;3.47;3.17;;;;;;;;;;5115890;28;20015;-59
2021/09/08 10:39:59;;;;;;;5.63;3.57;;;;;;;;;;5110687;28;20099;-59
2021/09/08 10:42:43;;;;;;;4.30;3.70;;;;;;;;;;5099469;28;20020;-59
2021/09/08 10:45:17;;;;;;;4.10;3.80;;;;;;;;;;5101724;28;20124;-59
2021/09/08 10:47:42;;;;;;;4.07;3.67;;;;;;;;;;5111156;28;20104;-59
2021/09/08 10:50:08;;;;;;;4.17;3.83;;;;;;;;;;5112490;28;20470;-59
2021/09/08 10:52:36;;;;;;;3.60;3.15;;;;;;;;;;5115167;28;20877;-59
2021/09/08 10:55:02;;;;;;;4.80;4.00;;;;;;;;;;5114876;28;20504;-59
2021/09/08 10:57:42;;;;;;;4.60;4.00;;;;;;;;;;5115914;28;20027;-59
2021/09/08 11:00:08;;;;;;;3.72;3.40;;;;;;;;;;5114526;28;20024;-59
2021/09/08 11:02:40;;;;;;;3.92;3.63;;;;;;;;;;5114695;28;20023;-59
2021/09/08 11:05:07;;;;;;;4.25;3.85;;;;;;;;;;5114530;28;20505;-59
2021/09/08 11:07:32;;;;;;;5.03;4.03;;;;;;;;;;5114681;28;20060;-59
2021/09/08 11:09:57;;;;;;;4.13;3.83;;;;;;;;;;5114814;28;20020;-59
2021/09/08 11:12:42;;;;;;;3.87;3.57;;;;;;;;;;5115463;28;20016;-60
2021/09/08 11:15:08;;;;;;;3.70;3.40;;;;;;;;;;5107853;28;20038;-60
2021/09/08 11:17:33;;;;;;;3.88;3.50;;;;;;;;;;5114317;28;20027;-60
2021/09/08 11:20:01;;;;;;;3.53;3.23;;;;;;;;;;5114678;28;20016;-60
2021/09/08 11:22:27;;;;;;;4.18;3.60;;;;;;;;;;5113972;28;20067;-59
2021/09/08 11:25:05;;;;;;;3.90;3.60;;;;;;;;;;5126164;27;20089;-59
2021/09/08 11:27:37;;;;;;;5.60;3.80;;;;;;;;;;5123353;27;20023;-60
2021/09/08 11:30:10;;;;;;;4.30;3.72;;;;;;;;;;5112502;28;20047;-60
2021/09/08 11:32:52;;;;;;;3.80;3.50;;;;;;;;;;5106761;28;20107;-60
2021/09/08 11:35:48;;;;;;;5.10;3.15;;;;;;;;;;5111151;28;20024;-60
2021/09/08 11:38:26;;;;;;;6.63;4.45;;;;;;;;;;5114521;27;20023;-59
2021/09/08 11:40:59;;;;;;;4.40;3.60;;;;;;;;;;5114203;28;20020;-60
2021/09/08 11:43:52;;;;;;;3.85;3.40;;;;;;;;;;5113225;28;20027;-59
2021/09/08 11:46:28;;;;;;;5.55;3.75;;;;;;;;;;5101466;28;20032;-60
2021/09/08 11:48:55;;;;;;;3.25;3.05;;;;;;;;;;5113210;28;20020;-59
2021/09/08 11:51:24;;;;;;;3.92;3.50;;;;;;;;;;5111669;28;20016;-60
2021/09/08 11:53:50;;;;;;;3.88;3.28;;;;;;;;;;5113458;28;20110;-60
2021/09/08 11:56:20;;;;;;;3.50;3.20;;;;;;;;;;5114230;28;20024;-60
2021/09/08 11:58:54;;;;;;;3.85;3.30;;;;;;;;;;5113710;28;20147;-60
2021/09/08 12:01:20;;;;;;;4.18;3.45;;;;;;;;;;5111933;28;20052;-59
2021/09/08 12:03:59;;;;;;;4.13;3.10;;;;;;;;;;5113551;28;20066;-59
2021/09/08 12:06:25;;;;;;;5.05;3.03;;;;;;;;;;5113567;28;20049;-60
2021/09/08 12:08:55;;;;;;;3.65;3.10;;;;;;;;;;5112857;28;20031;-60
2021/09/08 12:11:29;;;;;;;3.88;3.47;;;;;;;;;;5109840;28;20379;-60
2021/09/08 12:13:55;;;;;;;3.17;2.85;;;;;;;;;;5111062;28;20030;-60
2021/09/08 12:16:38;;;;;;;3.40;3.05;;;;;;;;;;5111843;28;20114;-60
2021/09/08 12:19:10;;;;;;;3.15;2.70;;;;;;;;;;5115493;27;20045;-60
2021/09/08 12:21:36;;;;;;;3.45;3.15;;;;;;;;;;5110284;28;20024;-60
2021/09/08 12:24:21;;;;;;;3.60;3.23;;;;;;;;;;5111374;28;20112;-60
2021/09/08 12:26:47;;;;;;;5.25;3.33;;;;;;;;;;5111078;28;20095;-60
2021/09/08 12:29:12;;;;;;;3.00;2.67;;;;;;;;;;5112469;28;20111;-60
2021/09/08 12:31:48;;;;;;;3.92;3.22;;;;;;;;;;5109906;28;20030;-60
2021/09/08 12:34:13;;;;;;;6.93;3.40;;;;;;;;;;5112772;28;20036;-60
2021/09/08 12:36:39;;;;;;;10.75;3.72;;;;;;;;;;5093173;28;20012;-60
2021/09/08 12:39:20;;;;;;;3.90;3.58;;;;;;;;;;5113667;27;20069;-60
2021/09/08 12:41:53;;;;;;;16.05;4.25;;;;;;;;;;5112494;28;20027;-59
2021/09/08 12:44:32;;;;;;;5.15;3.70;;;;;;;;;;5112699;28;20035;-61
2021/09/08 12:47:07;;;;;;;4.03;3.40;;;;;;;;;;5112984;28;20016;-61
2021/09/08 12:49:33;;;;;;;3.60;3.25;;;;;;;;;;5111782;28;20012;-61
2021/09/08 12:51:58;;;;;;;4.80;3.53;;;;;;;;;;5109937;28;20034;-61
2021/09/08 12:54:23;;;;;;;5.57;3.60;;;;;;;;;;5112726;28;20020;-59
2021/09/08 12:56:50;;;;;;;3.83;3.50;;;;;;;;;;5112579;28;20026;-60
2021/09/08 12:59:19;;;;;;;3.83;3.40;;;;;;;;;;5111744;28;20016;-60
2021/09/08 13:01:45;;;;;;;4.90;4.47;;;;;;;;;;5112257;28;20038;-60
2021/09/08 13:04:10;;;;;;;4.15;3.67;;;;;;;;;;5111520;28;20020;-60
2021/09/08 13:06:35;;;;;;;4.17;3.80;;;;;;;;;;5110628;28;20058;-60
2021/09/08 13:09:01;;;;;;;4.47;4.07;;;;;;;;;;5111440;28;20115;-60
2021/09/08 13:11:26;;;;;;;5.95;4.30;;;;;;;;;;5111191;28;20596;-61
2021/09/08 13:13:51;;;;;;;5.27;4.00;;;;;;;;;;5111110;28;20397;-59
2021/09/08 13:16:17;;;;;;;6.43;4.23;;;;;;;;;;5111398;28;20378;-60
2021/09/08 13:18:42;;;;;;;4.10;3.80;;;;;;;;;;5112233;28;20039;-61
2021/09/08 13:21:07;;;;;;;6.82;3.72;;;;;;;;;;5110541;28;20015;-60
2021/09/08 13:23:33;;;;;;;5.95;3.90;;;;;;;;;;5111478;28;20123;-59
2021/09/08 13:25:58;;;;;;;4.15;3.75;;;;;;;;;;5111320;28;20015;-59
2021/09/08 13:28:23;;;;;;;5.63;3.78;;;;;;;;;;5112502;28;20027;-59
2021/09/08 13:30:49;;;;;;;4.88;3.95;;;;;;;;;;5112173;28;20019;-60
2021/09/08 13:33:14;;;;;;;4.60;3.80;;;;;;;;;;5108538;28;20402;-60
2021/09/08 13:35:39;;;;;;;4.57;3.77;;;;;;;;;;5111171;28;20474;-59
2021/09/08 13:38:04;;;;;;;3.97;3.67;;;;;;;;;;5111966;27;20059;-59
2021/09/08 13:40:30;;;;;;;3.88;3.33;;;;;;;;;;5111931;28;20019;-59
2021/09/08 13:42:55;;;;;;;4.50;3.58;;;;;;;;;;5111562;28;20110;-60
2021/09/08 13:45:20;;;;;;;4.40;3.73;;;;;;;;;;5112086;28;20022;-59
2021/09/08 13:47:45;;;;;;;6.07;4.07;;;;;;;;;;5112063;28;20488;-59
2021/09/08 13:50:11;;;;;;;4.03;3.70;;;;;;;;;;5110349;28;20466;-58
2021/09/08 13:52:36;;;;;;;4.05;3.70;;;;;;;;;;5111226;28;20350;-59
2021/09/08 13:55:02;;;;;;;4.57;3.20;;;;;;;;;;5111883;28;20015;-59
2021/09/08 13:57:27;;;;;;;3.80;3.50;;;;;;;;;;5111901;28;20026;-59
2021/09/08 13:59:52;;;;;;;3.58;3.28;;;;;;;;;;5104649;28;20115;-59
2021/09/08 14:02:18;;;;;;;3.83;3.50;;;;;;;;;;5098123;28;20445;-59
2021/09/08 14:04:43;;;;;;;4.30;3.90;;;;;;;;;;5111410;28;20258;-59
2021/09/08 14:07:08;;;;;;;7.00;4.13;;;;;;;;;;5110519;28;20020;-59
2021/09/08 14:09:33;;;;;;;5.33;4.13;;;;;;;;;;5111721;28;20377;-59
2021/09/08 14:11:59;;;;;;;4.80;3.67;;;;;;;;;;5111298;28;20466;-60
2021/09/08 14:14:24;;;;;;;4.40;4.00;;;;;;;;;;5099414;28;20032;-60
2021/09/08 14:16:49;;;;;;;4.33;3.87;;;;;;;;;;5109220;28;20642;-60
2021/09/08 14:19:17;;;;;;;5.00;4.15;;;;;;;;;;5111843;28;20386;-60
2021/09/08 14:21:42;;;;;;;5.28;4.30;;;;;;;;;;5111215;28;20501;-59
2021/09/08 14:24:07;;;;;;;4.28;3.88;;;;;;;;;;5104879;28;20097;-59